createdAt,value
2024-01-22T00:00:12.069Z,15.68
2024-01-22T00:01:45.896Z,12.82
2024-01-22T00:03:19.420Z,17.23
2024-01-22T00:04:53.209Z,14.20
2024-01-22T00:06:26.717Z,13.75
2024-01-22T00:09:31.297Z,17.75
2024-01-22T00:11:03.626Z,10.57
2024-01-22T00:12:36.344Z,11.77
2024-01-22T00:14:08.813Z,8.07
2024-01-22T00:15:41.112Z,9.93
2024-01-22T00:17:13.414Z,9.38
2024-01-22T00:18:45.797Z,7.80
2024-01-22T00:20:18.658Z,8.60
2024-01-22T00:21:50.962Z,7.72
2024-01-22T00:23:23.331Z,10.48
2024-01-22T00:24:55.830Z,8.73
2024-01-22T00:26:28.273Z,8.93
2024-01-22T00:28:00.844Z,10.40
2024-01-22T00:29:33.241Z,9.27
2024-01-22T00:31:05.692Z,8.82
2024-01-22T00:32:38.481Z,7.43
2024-01-22T00:34:10.996Z,9.48
2024-01-22T00:35:43.469Z,9.73
2024-01-22T00:37:15.877Z,11.05
2024-01-22T00:38:48.221Z,8.68
2024-01-22T00:40:20.534Z,7.80
2024-01-22T00:41:55.726Z,8.43
2024-01-22T00:43:28.497Z,7.80
2024-01-22T00:45:00.924Z,9.23
2024-01-22T00:46:35.405Z,11.48
2024-01-22T00:48:09.098Z,8.68
2024-01-22T00:51:14.050Z,8.25
2024-01-22T00:52:46.485Z,8.43
2024-01-22T00:54:18.821Z,8.05
2024-01-22T00:55:51.106Z,7.63
2024-01-22T00:57:23.478Z,8.00
2024-01-22T00:58:57.981Z,7.68
2024-01-22T01:00:30.282Z,8.30
2024-01-22T01:02:02.469Z,6.60
2024-01-22T01:03:34.715Z,9.73
2024-01-22T01:05:07.235Z,12.10
2024-01-22T01:06:39.518Z,7.28
2024-01-22T01:08:11.919Z,8.30
2024-01-22T01:09:44.070Z,8.60
2024-01-22T01:11:16.350Z,8.45
2024-01-22T01:12:48.620Z,12.20
2024-01-22T01:14:20.835Z,15.23
2024-01-22T01:15:53.150Z,14.48
2024-01-22T01:17:25.359Z,17.30
2024-01-22T01:18:57.836Z,12.32
2024-01-22T01:20:30.102Z,18.50
2024-01-22T01:22:02.345Z,15.75
2024-01-22T01:23:35.095Z,12.23
2024-01-22T01:25:07.643Z,14.32
2024-01-22T01:26:43.892Z,9.18
2024-01-22T01:28:16.587Z,7.30
2024-01-22T01:29:48.953Z,8.25
2024-01-22T01:31:21.230Z,6.68
2024-01-22T01:32:55.070Z,9.02
2024-01-22T01:34:27.588Z,9.20
2024-01-22T01:36:02.543Z,7.47
2024-01-22T01:37:34.881Z,6.70
2024-01-22T01:39:07.311Z,8.25
2024-01-22T01:40:42.966Z,6.30
2024-01-22T01:42:15.193Z,8.68
2024-01-22T01:43:47.465Z,7.18
2024-01-22T01:45:20.161Z,10.82
2024-01-22T01:46:52.381Z,7.90
2024-01-22T01:48:24.748Z,8.68
2024-01-22T01:49:57.179Z,7.38
2024-01-22T01:51:29.492Z,7.10
2024-01-22T01:53:02.333Z,8.82
2024-01-22T01:54:34.539Z,10.85
2024-01-22T01:56:07.437Z,9.65
2024-01-22T01:57:45.984Z,8.68
2024-01-22T01:59:23.074Z,8.40
2024-01-22T02:00:58.966Z,7.28
2024-01-22T02:02:31.367Z,7.72
2024-01-22T02:04:03.717Z,7.90
2024-01-22T02:05:36.489Z,8.18
2024-01-22T02:07:09.069Z,8.52
2024-01-22T02:08:41.552Z,6.85
2024-01-22T02:10:14.859Z,7.47
2024-01-22T02:11:47.298Z,9.63
2024-01-22T02:13:19.693Z,11.80
2024-01-22T02:14:52.061Z,6.25
2024-01-22T02:16:24.387Z,9.27
2024-01-22T02:18:01.726Z,7.45
2024-01-22T02:19:34.269Z,6.70
2024-01-22T02:21:06.718Z,6.85
2024-01-22T02:22:39.168Z,8.48
2024-01-22T02:24:12.376Z,7.50
2024-01-22T02:25:45.031Z,5.57
2024-01-22T02:27:19.664Z,6.38
2024-01-22T02:28:52.054Z,6.70
2024-01-22T02:30:24.587Z,8.20
2024-01-22T02:31:57.406Z,7.30
2024-01-22T02:33:29.870Z,6.40
2024-01-22T02:35:02.240Z,17.03
2024-01-22T02:36:34.645Z,7.47
2024-01-22T02:38:07.147Z,7.43
2024-01-22T02:39:39.401Z,6.68
2024-01-22T02:41:11.843Z,8.35
2024-01-22T02:42:44.363Z,6.63
2024-01-22T02:44:16.768Z,7.38
2024-01-22T02:45:50.670Z,8.45
2024-01-22T02:47:23.019Z,6.65
2024-01-22T02:48:55.411Z,9.77
2024-01-22T02:50:27.960Z,7.90
2024-01-22T02:52:00.233Z,6.55
2024-01-22T02:53:32.958Z,6.80
2024-01-22T02:55:05.524Z,7.53
2024-01-22T02:56:37.834Z,6.77
2024-01-22T02:58:10.208Z,6.80
2024-01-22T02:59:42.742Z,7.50
2024-01-22T03:01:15.081Z,7.47
2024-01-22T03:02:47.682Z,6.45
2024-01-22T03:04:20.059Z,6.83
2024-01-22T03:05:52.465Z,6.18
2024-01-22T03:07:24.894Z,9.02
2024-01-22T03:08:57.458Z,5.28
2024-01-22T03:10:29.816Z,7.15
2024-01-22T03:12:02.231Z,5.10
2024-01-22T03:13:34.552Z,6.72
2024-01-22T03:15:07.344Z,7.90
2024-01-22T03:16:39.888Z,5.00
2024-01-22T03:18:13.861Z,8.23
2024-01-22T03:21:22.133Z,6.47
2024-01-22T03:22:54.421Z,5.38
2024-01-22T03:24:28.833Z,4.13
2024-01-22T03:26:01.509Z,5.45
2024-01-22T03:27:33.803Z,6.47
2024-01-22T03:29:06.156Z,6.80
2024-01-22T03:30:38.542Z,5.55
2024-01-22T03:32:10.839Z,7.70
2024-01-22T03:33:43.255Z,7.22
2024-01-22T03:35:15.579Z,7.20
2024-01-22T03:36:47.911Z,6.30
2024-01-22T03:38:20.141Z,8.05
2024-01-22T03:39:52.518Z,6.10
2024-01-22T03:41:24.869Z,5.30
2024-01-22T03:42:57.068Z,4.90
2024-01-22T03:44:29.335Z,6.88
2024-01-22T03:46:01.591Z,7.00
2024-01-22T03:47:33.801Z,5.68
2024-01-22T03:49:06.183Z,4.38
2024-01-22T03:50:38.973Z,6.63
2024-01-22T03:52:11.522Z,9.15
2024-01-22T03:53:43.855Z,5.63
2024-01-22T03:55:16.122Z,5.45
2024-01-22T03:56:48.442Z,4.28
2024-01-22T03:58:20.922Z,7.43
2024-01-22T03:59:53.369Z,4.53
2024-01-22T04:01:25.699Z,5.68
2024-01-22T04:02:58.055Z,6.32
2024-01-22T04:04:30.400Z,6.15
2024-01-22T04:06:03.155Z,4.90
2024-01-22T04:07:35.621Z,6.95
2024-01-22T04:09:07.931Z,4.07
2024-01-22T04:10:40.241Z,7.28
2024-01-22T04:12:13.052Z,5.35
2024-01-22T04:13:45.626Z,4.53
2024-01-22T04:15:18.263Z,5.35
2024-01-22T04:16:50.630Z,6.00
2024-01-22T04:18:23.068Z,6.88
2024-01-22T04:19:55.463Z,8.68
2024-01-22T04:21:29.226Z,6.28
2024-01-22T04:23:01.555Z,5.70
2024-01-22T04:24:36.605Z,5.97
2024-01-22T04:26:10.424Z,6.00
2024-01-22T04:27:43.291Z,8.32
2024-01-22T04:29:15.636Z,11.30
2024-01-22T04:30:47.875Z,10.60
2024-01-22T04:32:20.496Z,9.60
2024-01-22T04:33:52.998Z,7.82
2024-01-22T04:35:25.370Z,9.30
2024-01-22T04:36:57.838Z,8.73
2024-01-22T04:38:31.896Z,7.80
2024-01-22T04:40:14.610Z,6.93
2024-01-22T04:41:48.773Z,7.07
2024-01-22T04:43:23.342Z,3.20
2024-01-22T04:44:55.720Z,6.30
2024-01-22T04:46:28.105Z,5.22
2024-01-22T04:48:00.775Z,4.43
2024-01-22T04:49:33.248Z,6.15
2024-01-22T04:51:06.162Z,5.82
2024-01-22T04:52:38.475Z,7.40
2024-01-22T04:54:12.444Z,7.07
2024-01-22T04:55:45.124Z,7.30
2024-01-22T04:57:17.836Z,5.00
2024-01-22T04:58:50.181Z,8.23
2024-01-22T05:00:22.718Z,4.68
2024-01-22T05:01:55.322Z,5.93
2024-01-22T05:03:28.371Z,6.77
2024-01-22T05:05:04.018Z,5.22
2024-01-22T05:06:37.738Z,5.20
2024-01-22T05:08:10.298Z,5.63
2024-01-22T05:09:42.597Z,7.78
2024-01-22T05:11:15.232Z,10.20
2024-01-22T05:12:47.580Z,11.35
2024-01-22T05:14:20.022Z,10.57
2024-01-22T05:15:52.304Z,12.90
2024-01-22T05:17:26.177Z,11.73
2024-01-22T05:18:58.599Z,9.02
2024-01-22T05:20:33.738Z,12.15
2024-01-22T05:22:06.728Z,15.40
2024-01-22T05:23:40.064Z,8.32
2024-01-22T05:25:12.346Z,10.32
2024-01-22T05:26:44.899Z,11.27
2024-01-22T05:28:17.783Z,9.30
2024-01-22T05:29:50.398Z,11.05
2024-01-22T05:31:22.804Z,9.70
2024-01-22T05:32:55.217Z,11.43
2024-01-22T05:34:27.653Z,8.93
2024-01-22T05:36:01.349Z,7.45
2024-01-22T05:37:33.541Z,5.97
2024-01-22T05:39:08.840Z,11.82
2024-01-22T05:40:41.324Z,5.53
2024-01-22T05:42:13.868Z,7.68
2024-01-22T05:43:46.587Z,6.03
2024-01-22T05:45:19.353Z,6.97
2024-01-22T05:46:51.977Z,7.07
2024-01-22T06:04:12.046Z,8.95
2024-01-22T06:05:44.345Z,11.32
2024-01-22T06:07:16.982Z,10.48
2024-01-22T06:08:50.714Z,15.30
2024-01-22T06:10:23.131Z,14.93
2024-01-22T06:11:55.460Z,13.45
2024-01-22T06:13:27.862Z,9.15
2024-01-22T06:15:00.118Z,11.98
2024-01-22T06:16:32.645Z,11.40
2024-01-22T06:19:38.649Z,15.40
2024-01-22T06:21:11.017Z,8.30
2024-01-22T06:22:43.273Z,15.35
2024-01-22T06:24:15.578Z,8.75
2024-01-22T06:25:47.972Z,11.77
2024-01-22T06:27:20.485Z,20.10
2024-01-22T06:28:54.458Z,13.65
2024-01-22T06:30:26.951Z,14.60
2024-01-22T06:31:59.784Z,12.90
2024-01-22T06:33:32.131Z,20.52
2024-01-22T06:35:07.859Z,19.10
2024-01-22T06:36:40.177Z,24.63
2024-01-22T06:38:13.802Z,24.67
2024-01-22T06:39:46.030Z,28.23
2024-01-22T06:41:20.584Z,34.17
2024-01-22T06:42:52.881Z,50.92
2024-01-22T06:44:25.275Z,47.47
2024-01-22T06:45:57.895Z,46.90
2024-01-22T06:47:31.902Z,30.92
2024-01-22T06:49:09.046Z,32.80
2024-01-22T06:50:44.211Z,28.88
2024-01-22T06:52:16.464Z,34.65
2024-01-22T07:14:55.972Z,25.40
2024-01-22T07:16:28.224Z,20.08
2024-01-22T07:18:00.741Z,24.58
2024-01-22T07:19:33.168Z,22.13
2024-01-22T07:21:06.456Z,26.20
2024-01-22T07:22:38.794Z,24.27
2024-01-22T07:24:11.376Z,22.40
2024-01-22T07:25:46.455Z,23.50
2024-01-22T07:27:20.420Z,31.27
2024-01-22T07:28:53.230Z,19.08
2024-01-22T07:30:25.638Z,24.50
2024-01-22T07:31:58.661Z,19.85
2024-01-22T07:33:31.923Z,22.27
2024-01-22T07:35:11.187Z,25.25
2024-01-22T07:36:43.703Z,21.85
2024-01-22T07:38:16.126Z,19.85
2024-01-22T07:39:48.670Z,18.75
2024-01-22T07:41:21.018Z,21.88
2024-01-22T07:42:53.504Z,25.17
2024-01-22T07:44:25.934Z,26.55
2024-01-22T07:45:58.617Z,20.00
2024-01-22T07:47:33.169Z,22.23
2024-01-22T07:49:05.666Z,25.20
2024-01-22T07:50:39.416Z,20.97
2024-01-22T07:52:11.732Z,23.20
2024-01-22T07:53:44.884Z,24.13
2024-01-22T07:55:19.683Z,23.73
2024-01-22T07:56:52.453Z,20.65
2024-01-22T07:58:24.915Z,21.97
2024-01-22T07:59:57.694Z,22.92
2024-01-22T08:01:30.259Z,20.98
2024-01-22T08:03:03.766Z,24.13
2024-01-22T08:06:09.136Z,28.02
2024-01-22T08:07:46.629Z,24.20
2024-01-22T08:09:19.179Z,24.33
2024-01-22T08:10:51.628Z,24.48
2024-01-22T08:12:24.004Z,28.25
2024-01-22T08:13:56.425Z,26.45
2024-01-22T08:15:28.741Z,21.67
2024-01-22T08:17:01.244Z,28.63
2024-01-22T08:18:34.661Z,24.45
2024-01-22T08:20:09.149Z,27.80
2024-01-22T08:21:41.522Z,38.92
2024-01-22T08:23:13.850Z,44.95
2024-01-22T08:24:46.278Z,48.83
2024-01-22T08:26:18.617Z,43.40
2024-01-22T08:27:51.161Z,50.03
2024-01-22T08:29:23.675Z,47.58
2024-01-22T08:30:57.433Z,51.58
2024-01-22T08:32:29.791Z,50.58
2024-01-22T08:34:04.676Z,35.35
2024-01-22T08:35:37.418Z,41.28
2024-01-22T08:37:10.516Z,39.08
2024-01-22T08:38:43.624Z,39.00
2024-01-22T08:40:18.985Z,40.10
2024-01-22T08:41:53.565Z,36.78
2024-01-22T08:43:26.068Z,29.52
2024-01-22T08:44:58.402Z,32.67
2024-01-22T08:46:30.752Z,28.15
2024-01-22T08:48:03.587Z,32.88
2024-01-22T08:49:36.341Z,29.58
2024-01-22T08:51:08.842Z,31.65
2024-01-22T08:52:41.193Z,26.40
2024-01-22T08:54:13.455Z,26.33
2024-01-22T08:55:45.716Z,27.85
2024-01-22T08:57:18.568Z,26.27
2024-01-22T08:58:51.655Z,24.50
2024-01-22T09:00:25.203Z,28.20
2024-01-22T09:01:57.784Z,29.05
2024-01-22T09:03:31.717Z,21.73
2024-01-22T09:05:05.029Z,31.48
2024-01-22T09:06:37.721Z,25.52
2024-01-22T09:08:09.993Z,31.52
2024-01-22T09:09:43.420Z,37.08
2024-01-22T09:11:15.742Z,32.08
2024-01-22T09:12:50.262Z,31.80
2024-01-22T09:14:22.540Z,34.75
2024-01-22T09:15:55.899Z,35.30
2024-01-22T09:17:28.071Z,42.90
2024-01-22T09:19:00.460Z,27.67
2024-01-22T09:20:33.233Z,39.47
2024-01-22T09:22:05.754Z,32.20
2024-01-22T09:23:37.910Z,38.00
2024-01-22T09:25:10.809Z,30.40
2024-01-22T09:26:43.556Z,27.25
2024-01-22T09:28:21.308Z,33.55
2024-01-22T09:29:53.590Z,33.85
2024-01-22T09:31:25.931Z,34.92
2024-01-22T09:32:59.910Z,31.63
2024-01-22T09:34:32.408Z,29.63
2024-01-22T09:36:06.030Z,28.10
2024-01-22T09:39:10.907Z,27.17
2024-01-22T09:40:43.178Z,26.48
2024-01-22T09:42:19.137Z,29.73
2024-01-22T09:43:51.561Z,33.03
2024-01-22T09:45:23.776Z,33.33
2024-01-22T09:46:57.887Z,30.90
2024-01-22T09:48:31.410Z,33.20
2024-01-22T09:51:36.496Z,35.80
2024-01-22T09:53:13.164Z,38.03
2024-01-22T09:54:46.426Z,40.45
2024-01-22T09:56:21.758Z,41.17
2024-01-22T09:57:55.026Z,34.60
2024-01-22T09:59:30.016Z,36.03
2024-01-22T10:01:04.001Z,41.17
2024-01-22T10:02:36.770Z,36.40
2024-01-22T10:04:11.308Z,40.58
2024-01-22T10:05:43.794Z,38.20
2024-01-22T10:07:17.282Z,33.55
2024-01-22T10:10:29.920Z,37.60
2024-01-22T10:12:02.249Z,37.83
2024-01-22T10:14:03.820Z,37.58
2024-01-22T10:15:37.347Z,36.97
2024-01-22T10:17:20.057Z,40.85
2024-01-22T10:19:11.920Z,35.90
2024-01-22T10:20:46.986Z,35.95
2024-01-22T10:22:21.165Z,35.72
2024-01-22T10:24:07.111Z,36.03
2024-01-22T10:25:39.828Z,42.03
2024-01-22T10:27:16.384Z,43.65
2024-01-22T10:28:49.751Z,32.25
2024-01-22T10:30:23.389Z,30.33
2024-01-22T10:31:57.068Z,32.38
2024-01-22T10:33:29.684Z,33.42
2024-01-22T10:35:03.333Z,39.63
2024-01-22T10:36:35.836Z,38.40
2024-01-22T10:38:12.075Z,28.48
2024-01-22T10:39:45.753Z,33.58
2024-01-22T10:41:22.633Z,28.42
2024-01-22T10:42:55.071Z,34.53
2024-01-22T10:44:27.584Z,27.90
2024-01-22T10:46:01.224Z,28.30
2024-01-22T10:47:35.625Z,25.05
2024-01-22T10:49:09.241Z,28.73
2024-01-22T10:52:15.503Z,25.90
2024-01-22T10:53:50.529Z,22.98
2024-01-22T10:55:24.935Z,27.80
2024-01-22T10:57:06.716Z,26.00
2024-01-22T10:58:48.653Z,26.15
2024-01-22T11:00:22.454Z,29.85
2024-01-22T11:01:56.112Z,24.90
2024-01-22T11:03:32.442Z,26.30
2024-01-22T11:05:15.256Z,25.65
2024-01-22T11:06:49.840Z,23.48
2024-01-22T11:08:22.628Z,25.10
2024-01-22T11:09:58.412Z,27.60
2024-01-22T11:11:32.172Z,29.77
2024-01-22T11:13:04.628Z,27.88
2024-01-22T11:14:41.412Z,22.95
2024-01-22T11:16:13.792Z,25.85
2024-01-22T11:17:46.677Z,23.30
2024-01-22T11:19:25.983Z,21.48
2024-01-22T11:21:21.222Z,21.70
2024-01-22T11:23:16.852Z,23.85
2024-01-22T11:25:13.258Z,26.60
2024-01-22T11:26:48.216Z,21.23
2024-01-22T11:28:20.745Z,24.55
2024-01-22T11:29:53.272Z,25.42
2024-01-22T11:31:29.169Z,21.48
2024-01-22T11:33:01.783Z,25.73
2024-01-22T11:34:46.330Z,19.98
2024-01-22T11:36:25.824Z,18.17
2024-01-22T11:37:58.493Z,21.50
2024-01-22T11:39:37.213Z,21.83
2024-01-22T11:41:10.469Z,25.77
2024-01-22T11:42:43.067Z,18.88
2024-01-22T11:44:15.633Z,19.50
2024-01-22T11:45:50.017Z,25.33
2024-01-22T11:47:24.097Z,22.35
2024-01-22T11:48:56.810Z,25.45
2024-01-22T11:50:29.619Z,22.20
2024-01-22T11:52:13.461Z,23.67
2024-01-22T11:53:53.966Z,24.42
2024-01-22T11:55:27.580Z,21.50
2024-01-22T11:56:59.903Z,22.35
2024-01-22T11:58:36.249Z,25.20
2024-01-22T12:00:13.930Z,25.88
2024-01-22T12:01:46.530Z,22.02
2024-01-22T12:03:25.859Z,24.17
2024-01-22T12:05:14.808Z,27.25
2024-01-22T12:06:51.923Z,22.03
2024-01-22T12:08:24.487Z,26.73
2024-01-22T12:09:56.708Z,23.65
2024-01-22T12:11:37.646Z,23.55
2024-01-22T12:13:09.966Z,23.60
2024-01-22T12:14:42.172Z,22.02
2024-01-22T12:16:18.926Z,23.02
2024-01-22T12:17:51.516Z,20.00
2024-01-22T12:19:23.901Z,22.10
2024-01-22T12:20:56.250Z,25.27
2024-01-22T12:22:28.882Z,18.73
2024-01-22T12:24:12.750Z,19.30
2024-01-22T12:25:47.071Z,23.33
2024-01-22T12:27:21.694Z,20.48
2024-01-22T12:28:54.692Z,26.48
2024-01-22T12:30:29.576Z,24.73
2024-01-22T12:32:06.431Z,19.15
2024-01-22T12:33:39.067Z,23.90
2024-01-22T12:35:12.024Z,25.73
2024-01-22T12:36:44.400Z,23.38
2024-01-22T12:38:22.507Z,33.92
2024-01-22T12:40:07.997Z,18.70
2024-01-22T12:41:40.771Z,20.35
2024-01-22T12:43:14.004Z,23.55
2024-01-22T12:45:02.269Z,22.10
2024-01-22T12:46:35.467Z,21.55
2024-01-22T12:48:08.700Z,22.83
2024-01-22T12:49:41.689Z,26.45
2024-01-22T12:51:16.045Z,21.38
2024-01-22T12:52:49.434Z,23.50
2024-01-22T12:54:22.332Z,25.42
2024-01-22T12:55:54.636Z,29.52
2024-01-22T12:57:27.476Z,22.92
2024-01-22T12:59:00.173Z,23.15
2024-01-22T13:00:32.676Z,22.88
2024-01-22T13:02:05.278Z,27.60
2024-01-22T13:03:38.317Z,29.83
2024-01-22T13:05:11.312Z,26.40
2024-01-22T13:06:44.140Z,29.60
2024-01-22T13:25:48.420Z,22.65
2024-01-22T13:27:21.288Z,23.55
2024-01-22T13:28:54.119Z,27.75
2024-01-22T13:30:28.521Z,25.30
2024-01-22T13:32:01.436Z,28.77
2024-01-22T13:33:33.973Z,29.20
2024-01-22T13:35:07.493Z,21.13
2024-01-22T13:36:39.821Z,21.73
2024-01-22T13:38:12.120Z,27.75
2024-01-22T13:39:46.875Z,21.40
2024-01-22T13:41:22.291Z,30.13
2024-01-22T13:42:54.557Z,28.17
2024-01-22T13:44:26.843Z,29.75
2024-01-22T13:45:59.113Z,31.60
2024-01-22T13:47:37.394Z,23.83
2024-01-22T13:49:13.972Z,21.10
2024-01-22T13:50:46.513Z,22.40
2024-01-22T13:52:31.570Z,25.90
2024-01-22T13:54:08.553Z,23.83
2024-01-22T13:55:40.950Z,20.73
2024-01-22T13:57:13.779Z,21.15
2024-01-22T13:58:46.930Z,24.05
2024-01-22T14:00:19.771Z,22.95
2024-01-22T14:01:57.869Z,21.33
2024-01-22T14:03:33.653Z,24.30
2024-01-22T14:05:07.455Z,23.02
2024-01-22T14:06:40.517Z,22.98
2024-01-22T14:08:13.083Z,25.08
2024-01-22T14:09:47.169Z,28.55
2024-01-22T14:11:21.491Z,23.88
2024-01-22T14:12:53.967Z,19.98
2024-01-22T14:14:32.128Z,23.67
2024-01-22T14:16:10.822Z,28.15
2024-01-22T14:17:45.036Z,25.95
2024-01-22T14:19:17.496Z,18.98
2024-01-22T14:20:49.973Z,22.70
2024-01-22T14:22:25.267Z,23.92
2024-01-22T14:23:57.870Z,24.75
2024-01-22T14:25:30.706Z,23.87
2024-01-22T14:27:04.703Z,20.77
2024-01-22T14:30:13.117Z,28.73
2024-01-22T14:31:45.687Z,26.23
2024-01-22T14:33:18.649Z,23.45
2024-01-22T14:34:51.062Z,23.37
2024-01-22T14:36:23.785Z,27.33
2024-01-22T14:37:56.314Z,23.75
2024-01-22T14:39:28.749Z,22.27
2024-01-22T14:41:01.280Z,21.20
2024-01-22T14:42:33.649Z,25.15
2024-01-22T14:44:06.415Z,22.25
2024-01-22T14:45:39.112Z,23.70
2024-01-22T14:47:11.760Z,27.77
2024-01-22T14:48:44.587Z,23.38
2024-01-22T14:50:17.525Z,25.80
2024-01-22T14:51:50.223Z,25.58
2024-01-22T14:53:22.504Z,24.02
2024-01-22T14:54:55.783Z,27.83
2024-01-22T14:56:28.053Z,25.60
2024-01-22T14:58:00.242Z,22.95
2024-01-22T14:59:35.436Z,24.23
2024-01-22T15:01:07.844Z,26.45
2024-01-22T15:02:40.072Z,27.15
2024-01-22T15:05:46.385Z,25.60
2024-01-22T15:07:19.342Z,26.90
2024-01-22T15:08:51.715Z,23.90
2024-01-22T15:10:24.881Z,25.67
2024-01-22T15:11:57.236Z,30.08
2024-01-22T15:13:29.740Z,28.50
2024-01-22T15:15:02.552Z,22.33
2024-01-22T15:16:34.861Z,24.95
2024-01-22T15:18:08.618Z,24.27
2024-01-22T15:19:41.017Z,26.92
2024-01-22T15:21:13.643Z,24.27
2024-01-22T15:22:46.663Z,26.65
2024-01-22T15:24:19.468Z,28.58
2024-01-22T15:25:52.993Z,30.40
2024-01-22T15:28:57.582Z,23.45
2024-01-22T15:30:29.959Z,26.25
2024-01-22T15:32:02.334Z,25.90
2024-01-22T15:33:35.509Z,27.30
2024-01-22T15:35:08.809Z,27.70
2024-01-22T15:36:42.773Z,26.83
2024-01-22T15:38:18.134Z,25.73
2024-01-22T15:39:51.310Z,24.58
2024-01-22T15:41:24.084Z,29.77
2024-01-22T15:42:57.110Z,25.63
2024-01-22T15:44:29.562Z,27.55
2024-01-22T15:46:02.068Z,25.33
2024-01-22T15:47:34.717Z,26.20
2024-01-22T15:49:08.311Z,29.92
2024-01-22T15:50:40.902Z,24.65
2024-01-22T15:52:15.280Z,28.02
2024-01-22T15:53:47.724Z,30.13
2024-01-22T15:55:20.062Z,23.60
2024-01-22T15:56:52.472Z,29.92
2024-01-22T15:58:25.107Z,22.88
2024-01-22T15:59:57.830Z,24.30
2024-01-22T16:01:30.329Z,27.25
2024-01-22T16:03:02.878Z,26.40
2024-01-22T16:04:35.921Z,25.50
2024-01-22T16:06:10.662Z,24.83
2024-01-22T16:07:43.160Z,27.65
2024-01-22T16:09:15.561Z,24.60
2024-01-22T16:10:48.167Z,27.75
2024-01-22T16:12:20.597Z,25.73
2024-01-22T16:13:53.439Z,24.85
2024-01-22T16:15:26.222Z,22.52
2024-01-22T16:16:59.027Z,27.70
2024-01-22T16:20:06.377Z,25.75
2024-01-22T16:21:41.542Z,28.75
2024-01-22T16:23:14.226Z,23.77
2024-01-22T16:24:49.341Z,25.42
2024-01-22T16:26:21.646Z,23.75
2024-01-22T16:27:55.039Z,26.17
2024-01-22T16:29:29.742Z,20.92
2024-01-22T16:31:02.835Z,20.90
2024-01-22T16:32:35.467Z,19.42
2024-01-22T16:34:07.734Z,20.40
2024-01-22T16:35:40.574Z,18.45
2024-01-22T16:37:16.399Z,16.40
2024-01-22T16:38:48.874Z,18.27
2024-01-22T16:40:23.958Z,17.58
2024-01-22T16:41:56.167Z,15.15
2024-01-22T16:43:28.374Z,18.15
2024-01-22T16:45:00.735Z,21.83
2024-01-22T16:46:41.236Z,17.85
2024-01-22T16:48:13.822Z,19.35
2024-01-22T16:49:46.408Z,18.08
2024-01-22T16:51:19.099Z,20.15
2024-01-22T16:52:55.504Z,21.02
2024-01-22T16:54:28.006Z,20.27
2024-01-22T16:56:00.332Z,27.88
2024-01-22T16:57:32.600Z,23.23
2024-01-22T16:59:05.083Z,23.08
2024-01-22T17:00:38.650Z,23.23
2024-01-22T17:02:11.061Z,24.00
2024-01-22T17:07:07.130Z,23.65
2024-01-22T17:08:42.406Z,22.65
2024-01-22T17:10:14.846Z,17.98
2024-01-22T17:11:47.279Z,19.55
2024-01-22T17:13:20.045Z,19.42
2024-01-22T17:14:53.374Z,20.88
2024-01-22T17:16:26.119Z,18.55
2024-01-22T17:18:02.375Z,19.92
2024-01-22T17:19:34.835Z,19.25
2024-01-22T17:21:07.358Z,17.92
2024-01-22T17:22:40.461Z,20.33
2024-01-22T17:24:13.253Z,18.35
2024-01-22T17:25:45.711Z,19.23
2024-01-22T17:27:18.798Z,22.52
2024-01-22T17:28:51.258Z,19.85
2024-01-22T17:30:23.682Z,18.83
2024-01-22T17:31:56.312Z,17.50
2024-01-22T17:33:29.033Z,18.40
2024-01-22T17:41:57.075Z,37.67
2024-01-22T17:45:02.091Z,24.48
2024-01-22T17:46:35.610Z,22.35
2024-01-22T17:49:40.987Z,24.30
2024-01-22T17:53:15.430Z,26.73
2024-01-22T17:54:47.707Z,20.10
2024-01-22T17:56:20.227Z,18.73
2024-01-22T17:57:55.430Z,24.08
2024-01-22T17:59:27.753Z,21.35
2024-01-22T18:01:00.137Z,23.92
2024-01-22T18:02:32.741Z,32.63
2024-01-22T18:04:05.280Z,22.00
2024-01-22T18:05:37.830Z,26.70
2024-01-22T18:07:10.180Z,26.15
2024-01-22T18:10:16.659Z,28.35
2024-01-22T18:11:49.277Z,25.77
2024-01-22T18:13:22.220Z,26.50
2024-01-22T18:14:54.476Z,25.85
2024-01-22T18:16:26.848Z,26.05
2024-01-22T18:17:59.436Z,34.83
2024-01-22T18:19:31.996Z,34.33
2024-01-22T18:21:04.810Z,37.58
2024-01-22T18:22:40.817Z,47.20
2024-01-22T18:24:13.148Z,36.63
2024-01-22T18:25:45.638Z,37.38
2024-01-22T18:27:18.046Z,37.80
2024-01-22T18:28:50.532Z,29.95
2024-01-22T18:30:22.887Z,49.70
2024-01-22T18:31:55.605Z,24.92
2024-01-22T18:33:27.956Z,54.50
2024-01-22T18:35:00.450Z,28.98
2024-01-22T18:36:32.999Z,27.05
2024-01-22T18:38:05.329Z,32.45
2024-01-22T18:39:37.639Z,34.85
2024-01-22T18:41:09.935Z,31.02
2024-01-22T18:42:42.253Z,26.40
2024-01-22T18:44:14.704Z,26.45
2024-01-22T18:45:46.982Z,28.15
2024-01-22T18:47:19.394Z,35.47
2024-01-22T18:48:54.629Z,36.47
2024-01-22T18:50:27.138Z,30.55
2024-01-22T18:51:59.437Z,32.15
2024-01-22T18:53:32.141Z,32.17
2024-01-22T18:55:05.388Z,30.20
2024-01-22T18:56:39.864Z,37.45
2024-01-22T18:58:12.152Z,31.52
2024-01-22T18:59:47.051Z,31.38
2024-01-22T19:01:19.349Z,35.75
2024-01-22T19:02:53.472Z,30.38
2024-01-22T19:04:27.308Z,26.98
2024-01-22T19:06:03.969Z,31.63
2024-01-22T19:07:36.391Z,32.08
2024-01-22T19:09:09.502Z,31.65
2024-01-22T19:10:42.009Z,32.03
2024-01-22T19:12:14.700Z,30.08
2024-01-22T19:13:47.214Z,27.00
2024-01-22T19:15:19.690Z,27.67
2024-01-22T19:16:54.411Z,30.70
2024-01-22T19:18:26.987Z,25.10
2024-01-22T19:20:00.124Z,22.17
2024-01-22T19:21:32.639Z,27.80
2024-01-22T19:23:05.652Z,25.25
2024-01-22T19:24:37.909Z,21.40
2024-01-22T19:26:10.273Z,24.38
2024-01-22T19:27:43.629Z,22.83
2024-01-22T19:29:15.834Z,25.48
2024-01-22T19:30:48.260Z,21.30
2024-01-22T19:32:21.016Z,28.45
2024-01-22T19:33:53.354Z,21.80
2024-01-22T19:35:25.771Z,23.73
2024-01-22T19:36:58.148Z,22.65
2024-01-22T19:38:30.594Z,28.65
2024-01-22T19:40:02.908Z,21.85
2024-01-22T19:41:35.433Z,30.60
2024-01-22T19:43:07.647Z,23.92
2024-01-22T19:44:43.069Z,30.35
2024-01-22T19:46:18.752Z,31.38
2024-01-22T19:47:52.934Z,30.13
2024-01-22T19:49:25.358Z,30.05
2024-01-22T19:50:57.807Z,26.92
2024-01-22T19:52:30.478Z,30.20
2024-01-22T19:54:03.016Z,27.63
2024-01-22T19:55:35.534Z,31.30
2024-01-22T19:57:07.961Z,37.15
2024-01-22T19:58:43.427Z,26.73
2024-01-22T20:00:16.567Z,40.72
2024-01-22T20:01:48.795Z,34.00
2024-01-22T20:03:21.272Z,36.03
2024-01-22T20:04:53.756Z,35.78
2024-01-22T20:06:26.062Z,29.75
2024-01-22T20:07:58.375Z,30.80
2024-01-22T20:09:31.763Z,27.30
2024-01-22T20:11:04.183Z,27.13
2024-01-22T20:12:38.241Z,38.20
2024-01-22T20:14:10.757Z,31.90
2024-01-22T20:15:43.342Z,36.53
2024-01-22T20:17:15.613Z,35.83
2024-01-22T20:18:49.404Z,42.70
2024-01-22T20:29:17.620Z,35.58
2024-01-22T20:30:49.808Z,41.13
2024-01-22T20:32:21.970Z,33.85
2024-01-22T20:33:58.713Z,36.22
2024-01-22T20:35:35.470Z,30.40
2024-01-22T20:37:07.696Z,29.88
2024-01-22T20:38:40.125Z,28.88
2024-01-22T20:40:12.510Z,35.90
2024-01-22T20:41:45.196Z,32.00
2024-01-22T20:43:17.663Z,34.42
2024-01-22T20:44:50.221Z,32.03
2024-01-22T20:46:22.632Z,34.80
2024-01-22T20:47:55.440Z,28.20
2024-01-22T20:49:27.931Z,30.48
2024-01-22T20:51:00.358Z,31.80
2024-01-22T20:52:32.728Z,43.30
2024-01-22T20:54:05.181Z,36.83
2024-01-22T20:55:37.814Z,32.92
2024-01-22T20:57:10.392Z,29.95
2024-01-22T20:58:45.025Z,30.95
2024-01-22T21:00:27.921Z,25.60
2024-01-22T21:02:00.493Z,31.92
2024-01-22T21:03:36.102Z,31.60
2024-01-22T21:05:09.607Z,33.47
2024-01-22T21:06:42.910Z,22.75
2024-01-22T21:08:16.239Z,23.85
2024-01-22T21:09:48.547Z,23.30
2024-01-22T21:11:22.516Z,23.25
2024-01-22T21:12:54.785Z,20.92
2024-01-22T21:14:30.001Z,26.10
2024-01-22T21:16:03.455Z,24.13
2024-01-22T21:19:08.248Z,20.25
2024-01-22T21:20:40.787Z,22.63
2024-01-22T21:22:13.243Z,26.67
2024-01-22T21:23:46.488Z,22.85
2024-01-22T21:25:19.518Z,23.30
2024-01-22T21:26:51.780Z,26.83
2024-01-22T21:28:24.071Z,21.50
2024-01-22T21:29:59.364Z,24.50
2024-01-22T21:31:31.711Z,23.33
2024-01-22T21:33:04.267Z,29.98
2024-01-22T21:34:36.672Z,21.23
2024-01-22T21:36:10.482Z,25.52
2024-01-22T21:37:42.908Z,28.08
2024-01-22T21:39:15.317Z,18.55
2024-01-22T21:40:47.528Z,28.23
2024-01-22T21:42:22.274Z,23.75
2024-01-22T21:43:54.598Z,30.17
2024-01-22T21:45:26.896Z,28.88
2024-01-22T21:46:59.130Z,22.55
2024-01-22T21:48:31.573Z,25.05
2024-01-22T21:50:04.715Z,41.38
2024-01-22T21:51:37.131Z,27.80
2024-01-22T21:53:09.807Z,42.63
2024-01-22T21:54:42.128Z,28.17